Time;durP1;ratioP1;P1;durP2;ratioP2;P2;SDS_P1;SDS_P2;PMS_P1;PMS_P2;Temp;Humidity;BMP_temperature;BMP_pressure;BME280_temperature;BME280_humidity;BME280_pressure;Samples;Min_cycle;Max_cycle;Signal;HPM_P1;HPM_P2
2022/11/09 00:01:06;;;;;;;3.17;1.60;;;15.10;99.90;;;;;;4125235;28;20046;-62
2022/11/09 00:03:07;;;;;;;3.78;1.70;;;15.10;99.90;;;;;;4128154;28;20367;-62
2022/11/09 00:05:08;;;;;;;4.32;1.60;;;15.10;99.90;;;;;;4127822;28;20038;-63
2022/11/09 00:07:08;;;;;;;3.65;1.98;;;15.10;99.90;;;;;;4127686;28;20114;-62
2022/11/09 00:09:09;;;;;;;3.33;1.60;;;15.10;99.90;;;;;;4127250;28;20031;-62
2022/11/09 00:11:10;;;;;;;2.03;1.30;;;15.10;99.90;;;;;;4126073;28;20050;-62
2022/11/09 00:13:11;;;;;;;1.33;1.10;;;15.10;99.90;;;;;;4127875;28;20030;-63
2022/11/09 00:15:12;;;;;;;5.32;1.70;;;15.10;99.90;;;;;;4127328;28;20489;-63
2022/11/09 00:17:12;;;;;;;3.67;1.70;;;15.10;99.90;;;;;;4124415;28;20435;-62
2022/11/09 00:19:13;;;;;;;3.58;1.42;;;15.10;99.90;;;;;;4125665;28;20026;-63
2022/11/09 00:21:20;;;;;;;3.38;1.45;;;15.10;99.90;;;;;;4125865;28;20034;-62
2022/11/09 00:23:21;;;;;;;3.50;1.50;;;15.10;99.90;;;;;;4128015;28;20042;-62
2022/11/09 00:25:21;;;;;;;7.55;1.52;;;15.10;99.90;;;;;;4125769;28;20535;-62
2022/11/09 00:27:22;;;;;;;2.78;1.60;;;15.00;99.90;;;;;;4128057;28;20031;-62
2022/11/09 00:29:22;;;;;;;2.25;1.52;;;15.00;99.90;;;;;;4126787;28;20070;-62
2022/11/09 00:31:23;;;;;;;2.05;1.20;;;15.00;99.90;;;;;;4126772;28;20039;-62
2022/11/09 00:33:24;;;;;;;3.25;1.60;;;15.00;99.90;;;;;;4124883;28;20042;-62
2022/11/09 00:35:25;;;;;;;2.50;1.50;;;15.00;99.90;;;;;;4129672;28;20034;-62
2022/11/09 00:37:28;;;;;;;2.45;1.20;;;15.00;99.90;;;;;;4130086;28;20042;-62
2022/11/09 00:39:29;;;;;;;2.67;1.42;;;15.00;99.90;;;;;;4129864;28;20061;-62
2022/11/09 00:41:29;;;;;;;4.72;1.80;;;15.00;99.90;;;;;;4126994;28;20489;-63
2022/11/09 00:43:30;;;;;;;3.03;1.70;;;14.90;99.90;;;;;;4131216;28;20209;-62
2022/11/09 00:45:31;;;;;;;5.40;1.77;;;14.90;99.90;;;;;;4130076;28;20049;-62
2022/11/09 00:47:32;;;;;;;3.92;1.63;;;14.90;99.90;;;;;;4130955;28;20027;-62
2022/11/09 00:49:32;;;;;;;1.80;1.30;;;14.90;99.90;;;;;;4128877;28;20038;-62
2022/11/09 00:51:33;;;;;;;4.25;1.55;;;14.90;99.90;;;;;;4127419;28;20026;-62
2022/11/09 00:53:33;;;;;;;4.35;1.85;;;14.90;99.90;;;;;;4130884;28;20431;-62
2022/11/09 00:55:34;;;;;;;2.38;1.58;;;14.90;99.90;;;;;;4130038;28;20363;-62
2022/11/09 00:57:34;;;;;;;3.30;1.83;;;14.90;99.90;;;;;;4130642;28;20097;-62
2022/11/09 00:59:35;;;;;;;1.83;1.27;;;14.90;99.90;;;;;;4130036;28;20038;-62
2022/11/09 01:01:36;;;;;;;6.15;1.55;;;14.90;99.90;;;;;;4126963;28;20047;-62
2022/11/09 01:03:37;;;;;;;2.67;1.50;;;14.90;99.90;;;;;;4130743;28;20034;-62
2022/11/09 01:05:38;;;;;;;4.22;1.60;;;14.90;99.90;;;;;;4126530;28;20402;-62
2022/11/09 01:07:38;;;;;;;5.65;1.70;;;14.90;99.90;;;;;;4129255;28;20489;-62
2022/11/09 01:09:39;;;;;;;2.72;1.42;;;14.90;99.90;;;;;;4127624;28;20034;-62
2022/11/09 01:11:40;;;;;;;1.95;1.42;;;14.80;99.90;;;;;;4127705;28;20030;-62
2022/11/09 01:13:40;;;;;;;2.53;1.60;;;14.80;99.90;;;;;;4130086;28;20078;-62
2022/11/09 01:15:49;;;;;;;3.72;1.38;;;14.80;99.90;;;;;;4129785;28;20162;-62
2022/11/09 01:17:50;;;;;;;2.28;1.30;;;14.80;99.90;;;;;;4126298;28;20500;-62
2022/11/09 01:19:51;;;;;;;2.38;1.42;;;14.80;99.90;;;;;;4127440;28;20035;-62
2022/11/09 01:21:51;;;;;;;3.38;1.40;;;14.80;99.90;;;;;;4127321;28;20034;-62
2022/11/09 01:23:53;;;;;;;1.90;1.35;;;14.80;99.90;;;;;;4130319;28;20029;-62
2022/11/09 01:25:58;;;;;;;5.95;1.73;;;14.80;99.90;;;;;;4129832;28;20042;-62
2022/11/09 01:27:59;;;;;;;1.88;1.20;;;14.80;99.90;;;;;;4128996;28;20383;-62
2022/11/09 01:30:00;;;;;;;3.05;1.45;;;14.80;99.90;;;;;;4129044;28;20121;-62
2022/11/09 01:32:01;;;;;;;2.10;1.50;;;14.80;99.90;;;;;;4127619;28;20441;-63
2022/11/09 01:34:01;;;;;;;2.65;1.48;;;14.80;99.90;;;;;;4129763;28;20506;-62
2022/11/09 01:36:03;;;;;;;2.53;1.20;;;14.90;99.90;;;;;;4129561;28;20046;-62
2022/11/09 01:38:05;;;;;;;2.80;1.23;;;14.80;99.90;;;;;;4128607;28;20022;-62
2022/11/09 01:40:06;;;;;;;2.03;1.40;;;14.80;99.90;;;;;;4127557;28;20089;-62
2022/11/09 01:42:07;;;;;;;3.70;1.45;;;14.80;99.90;;;;;;4127765;28;20022;-62
2022/11/09 01:44:13;;;;;;;3.13;1.35;;;14.80;99.90;;;;;;4130372;28;20030;-62
2022/11/09 01:46:21;;;;;;;4.40;1.55;;;14.90;99.90;;;;;;4125224;28;20030;-64
2022/11/09 01:48:53;;;;;;;4.13;1.48;;;14.90;99.90;;;;;;4130328;28;20036;-62
2022/11/09 01:51:00;;;;;;;3.15;1.33;;;14.80;99.90;;;;;;4117218;28;20035;-62
2022/11/09 01:53:04;;;;;;;1.77;1.20;;;14.80;99.90;;;;;;4125069;28;20026;-62
2022/11/09 01:55:25;;;;;;;3.28;1.40;;;14.90;99.90;;;;;;4128333;28;20022;-63
2022/11/09 01:57:33;;;;;;;2.58;1.13;;;14.90;99.90;;;;;;4126306;28;20489;-62
2022/11/09 01:59:38;;;;;;;3.00;1.40;;;14.90;99.90;;;;;;4127528;28;20034;-62
2022/11/09 02:01:41;;;;;;;5.00;1.30;;;14.90;99.90;;;;;;4124762;28;20130;-62
2022/11/09 02:03:50;;;;;;;2.08;1.10;;;14.90;99.90;;;;;;4129569;28;20574;-62
2022/11/09 02:05:51;;;;;;;3.58;1.30;;;14.80;99.90;;;;;;4128825;28;20026;-62
2022/11/09 02:07:53;;;;;;;2.75;1.48;;;14.80;99.90;;;;;;4129760;28;20539;-62
2022/11/09 02:10:18;;;;;;;3.33;1.40;;;14.80;99.90;;;;;;4126873;28;20054;-63
2022/11/09 02:12:21;;;;;;;3.58;1.40;;;14.80;99.90;;;;;;4128170;28;20076;-62
2022/11/09 02:14:25;;;;;;;6.35;1.50;;;14.80;99.90;;;;;;4129800;28;20046;-62
2022/11/09 02:16:26;;;;;;;4.22;1.40;;;14.70;99.90;;;;;;4128787;28;20374;-62
2022/11/09 02:18:29;;;;;;;2.25;1.20;;;14.70;99.90;;;;;;4128278;28;20433;-62
2022/11/09 02:20:42;;;;;;;3.25;1.17;;;14.70;99.90;;;;;;4126282;28;20042;-62
2022/11/09 02:22:42;;;;;;;;;;;14.70;99.90;;;;;;4129196;28;20359;-62
2022/11/09 02:24:43;;;;;;;1.77;1.15;;;14.70;99.90;;;;;;4129733;28;19971;-62
2022/11/09 02:26:49;;;;;;;3.33;1.20;;;14.60;99.90;;;;;;4141840;28;20088;-62
2022/11/09 02:28:54;;;;;;;3.05;1.10;;;14.60;99.90;;;;;;4128766;28;20038;-62
2022/11/09 02:30:56;;;;;;;2.38;1.10;;;14.60;99.90;;;;;;4126059;28;20042;-62
2022/11/09 02:32:56;;;;;;;3.33;1.37;;;14.60;99.90;;;;;;4129436;28;20031;-62
2022/11/09 02:34:57;;;;;;;2.80;1.30;;;14.60;99.90;;;;;;4129303;28;20038;-62
2022/11/09 02:36:58;;;;;;;5.80;1.50;;;14.50;99.90;;;;;;4128401;28;20039;-62
2022/11/09 02:38:58;;;;;;;3.15;1.15;;;14.60;99.90;;;;;;4126647;28;20034;-65
2022/11/09 02:40:59;;;;;;;2.05;1.00;;;14.60;99.90;;;;;;4125116;28;20038;-62
2022/11/09 02:43:00;;;;;;;3.28;1.20;;;14.60;99.90;;;;;;4128727;28;20034;-62
2022/11/09 02:45:01;;;;;;;4.13;1.23;;;14.50;99.90;;;;;;4129406;28;20083;-62
2022/11/09 02:47:02;;;;;;;2.63;1.30;;;14.50;99.90;;;;;;4128532;28;20533;-62
2022/11/09 02:49:03;;;;;;;3.95;1.35;;;14.50;99.90;;;;;;4126811;28;20035;-62
2022/11/09 02:51:04;;;;;;;6.10;1.20;;;14.50;99.90;;;;;;4125550;28;20102;-62
2022/11/09 02:53:05;;;;;;;4.93;1.20;;;14.50;99.90;;;;;;4128949;28;20039;-62
2022/11/09 02:55:06;;;;;;;3.88;1.50;;;14.40;99.90;;;;;;4122705;28;20035;-63
2022/11/09 02:57:06;;;;;;;3.17;1.40;;;14.50;99.90;;;;;;4121536;28;20485;-62
2022/11/09 02:59:07;;;;;;;8.15;1.63;;;14.40;99.90;;;;;;4128028;28;20042;-62
2022/11/09 03:01:08;;;;;;;3.42;1.35;;;14.50;99.90;;;;;;4126526;28;20081;-62
2022/11/09 03:03:09;;;;;;;3.85;1.15;;;14.40;99.90;;;;;;4128904;28;20034;-62
2022/11/09 03:05:09;;;;;;;4.55;1.33;;;14.50;99.90;;;;;;4142776;28;20081;-63
2022/11/09 03:07:10;;;;;;;4.15;1.40;;;14.50;99.90;;;;;;4128578;28;20030;-62
2022/11/09 03:09:11;;;;;;;1.98;0.80;;;14.50;99.90;;;;;;4141928;28;20042;-62
2022/11/09 03:11:12;;;;;;;4.43;1.45;;;14.50;99.90;;;;;;4127356;28;20041;-62
2022/11/09 03:13:12;;;;;;;4.05;1.38;;;14.50;99.90;;;;;;4128129;28;20058;-62
2022/11/09 03:15:13;;;;;;;6.20;1.65;;;14.50;99.90;;;;;;4126144;28;20045;-62
2022/11/09 03:17:15;;;;;;;2.38;1.20;;;14.50;99.90;;;;;;4127350;28;20533;-62
2022/11/09 03:19:16;;;;;;;2.95;1.02;;;14.50;99.90;;;;;;4127136;28;20041;-62
2022/11/09 03:21:17;;;;;;;3.83;1.33;;;14.50;99.90;;;;;;4125769;28;20046;-62
2022/11/09 03:23:17;;;;;;;3.90;1.38;;;14.50;99.90;;;;;;4124954;28;20478;-65
2022/11/09 03:25:18;;;;;;;4.45;1.38;;;14.50;99.90;;;;;;4128025;28;20152;-63
2022/11/09 03:27:18;;;;;;;4.25;1.50;;;14.50;99.90;;;;;;4128097;28;20060;-63
2022/11/09 03:29:19;;;;;;;2.88;1.33;;;14.50;99.90;;;;;;4126247;28;20039;-62
2022/11/09 03:31:19;;;;;;;4.35;1.45;;;14.50;99.90;;;;;;4125423;28;20545;-62
2022/11/09 03:33:20;;;;;;;4.55;1.58;;;14.50;99.90;;;;;;4127475;28;20343;-62
2022/11/09 03:35:21;;;;;;;5.28;1.77;;;14.50;99.90;;;;;;4127582;28;20400;-62
2022/11/09 03:37:21;;;;;;;4.07;1.33;;;14.50;99.90;;;;;;4121939;28;20042;-62
2022/11/09 03:39:22;;;;;;;2.20;1.10;;;14.50;99.90;;;;;;4126163;28;20027;-62
2022/11/09 03:41:23;;;;;;;3.90;1.42;;;14.50;99.90;;;;;;4124248;28;20042;-62
2022/11/09 03:43:23;;;;;;;6.00;1.67;;;14.60;99.90;;;;;;4127752;28;20489;-62
2022/11/09 03:45:24;;;;;;;3.65;1.20;;;14.50;99.90;;;;;;4127419;28;20397;-62
2022/11/09 03:47:25;;;;;;;3.85;1.27;;;14.50;99.90;;;;;;4128415;28;20140;-62
2022/11/09 03:49:25;;;;;;;3.65;1.13;;;14.60;99.90;;;;;;4127535;28;20478;-62
2022/11/09 03:51:26;;;;;;;3.80;1.33;;;14.60;99.90;;;;;;4124716;28;20111;-62
2022/11/09 03:53:26;;;;;;;2.95;1.38;;;14.60;99.90;;;;;;4127265;28;20057;-62
2022/11/09 03:55:27;;;;;;;2.35;1.05;;;14.60;99.90;;;;;;4127694;28;20046;-62
2022/11/09 03:57:28;;;;;;;4.22;1.58;;;14.60;99.90;;;;;;4128294;28;20038;-62
2022/11/09 03:59:29;;;;;;;3.08;1.52;;;14.60;99.90;;;;;;4126597;28;20501;-62
2022/11/09 04:01:29;;;;;;;3.95;1.23;;;14.60;99.90;;;;;;4126064;28;20461;-64
2022/11/09 04:03:30;;;;;;;7.00;2.05;;;14.60;99.90;;;;;;4125540;28;20057;-63
2022/11/09 04:05:30;;;;;;;6.43;1.35;;;14.60;99.90;;;;;;4126817;28;20448;-62
2022/11/09 04:07:31;;;;;;;4.30;1.67;;;14.60;99.90;;;;;;4127911;28;20038;-62
2022/11/09 04:09:32;;;;;;;5.25;1.50;;;14.60;99.90;;;;;;4127136;28;20121;-62
2022/11/09 04:11:32;;;;;;;4.57;1.60;;;14.60;99.90;;;;;;4126357;28;20066;-62
2022/11/09 04:13:33;;;;;;;5.63;1.70;;;14.60;99.90;;;;;;4127435;28;20049;-63
2022/11/09 04:15:33;;;;;;;4.43;1.17;;;14.60;99.90;;;;;;4127061;28;20046;-62
2022/11/09 04:17:34;;;;;;;7.70;1.42;;;14.50;99.90;;;;;;4127963;28;20042;-62
2022/11/09 04:19:34;;;;;;;7.72;1.55;;;14.60;99.90;;;;;;4126320;28;20038;-62
2022/11/09 04:21:35;;;;;;;3.80;1.52;;;14.60;99.90;;;;;;4124566;28;20478;-62
2022/11/09 04:23:36;;;;;;;7.13;1.90;;;14.60;99.90;;;;;;4125641;28;20046;-62
2022/11/09 04:25:38;;;;;;;5.00;1.40;;;14.60;99.90;;;;;;4121717;28;20038;-62
2022/11/09 04:27:38;;;;;;;4.18;1.63;;;14.60;99.90;;;;;;4128018;28;20445;-62
2022/11/09 04:29:39;;;;;;;4.43;1.52;;;14.60;99.90;;;;;;4127189;28;20034;-62
2022/11/09 04:31:40;;;;;;;3.80;1.50;;;14.60;99.90;;;;;;4126135;28;20039;-62
2022/11/09 04:33:40;;;;;;;6.25;1.58;;;14.60;99.90;;;;;;4126005;28;20030;-62
2022/11/09 04:35:41;;;;;;;3.97;1.65;;;14.60;99.90;;;;;;4126783;28;20041;-62
2022/11/09 04:37:41;;;;;;;3.50;1.30;;;14.60;99.90;;;;;;4128135;28;20078;-62
2022/11/09 04:39:42;;;;;;;5.28;1.60;;;14.70;99.90;;;;;;4123988;28;20459;-62
2022/11/09 04:41:42;;;;;;;5.00;1.63;;;14.60;99.90;;;;;;4123658;28;20042;-62
2022/11/09 04:43:43;;;;;;;6.47;1.70;;;14.60;99.90;;;;;;4127313;28;20038;-62
2022/11/09 04:45:44;;;;;;;6.40;1.80;;;14.60;99.90;;;;;;4127071;28;20026;-62
2022/11/09 04:47:45;;;;;;;6.00;1.52;;;14.60;99.90;;;;;;4126369;28;20630;-62
2022/11/09 04:49:45;;;;;;;2.70;1.08;;;14.50;99.90;;;;;;4125045;28;20054;-62
2022/11/09 04:51:46;;;;;;;7.20;1.80;;;14.50;99.90;;;;;;4123961;28;20043;-63
2022/11/09 04:53:47;;;;;;;5.93;1.73;;;14.50;99.90;;;;;;4126959;28;20046;-62
2022/11/09 04:55:47;;;;;;;5.28;1.38;;;14.50;99.90;;;;;;4125261;28;20589;-62
2022/11/09 04:57:48;;;;;;;6.85;1.48;;;14.50;99.90;;;;;;4121298;28;20030;-63
2022/11/09 04:59:48;;;;;;;5.72;1.67;;;14.50;99.90;;;;;;4122669;28;20022;-62
2022/11/09 05:01:49;;;;;;;4.22;1.27;;;14.50;99.90;;;;;;4119102;28;20073;-62
2022/11/09 05:03:50;;;;;;;4.60;1.38;;;14.50;99.90;;;;;;4122879;28;20049;-62
2022/11/09 05:05:51;;;;;;;6.28;1.70;;;14.40;99.90;;;;;;4120744;28;20089;-63
2022/11/09 05:07:51;;;;;;;4.88;1.33;;;14.40;99.90;;;;;;4123542;28;20031;-62
2022/11/09 05:09:52;;;;;;;2.75;1.00;;;14.50;99.90;;;;;;4124123;28;20109;-62
2022/11/09 05:11:52;;;;;;;5.40;1.73;;;14.40;99.90;;;;;;4123799;28;20022;-62
2022/11/09 05:13:53;;;;;;;5.65;1.50;;;14.40;99.90;;;;;;4121513;28;20042;-62
2022/11/09 05:15:53;;;;;;;4.88;1.27;;;14.40;99.90;;;;;;4124300;28;20038;-62
2022/11/09 05:17:54;;;;;;;11.57;2.00;;;14.30;99.90;;;;;;4124927;28;20030;-62
2022/11/09 05:19:54;;;;;;;5.10;1.88;;;14.30;99.90;;;;;;4126640;28;20034;-62
2022/11/09 05:21:55;;;;;;;5.30;1.58;;;14.40;99.90;;;;;;4127329;28;20477;-62
2022/11/09 05:23:58;;;;;;;5.68;1.73;;;14.40;99.90;;;;;;4126586;28;20035;-61
2022/11/09 05:25:59;;;;;;;6.00;1.77;;;14.30;99.90;;;;;;4126013;28;20422;-62
2022/11/09 05:27:59;;;;;;;5.22;1.17;;;14.40;99.90;;;;;;4125649;28;20058;-62
2022/11/09 05:30:00;;;;;;;5.07;1.60;;;14.40;99.90;;;;;;4126804;28;20031;-62
2022/11/09 05:32:00;;;;;;;3.78;1.38;;;14.40;99.90;;;;;;4141322;28;20101;-65
2022/11/09 05:34:02;;;;;;;5.28;1.63;;;14.40;99.90;;;;;;4127728;28;20115;-63
2022/11/09 05:36:03;;;;;;;7.45;1.70;;;14.40;99.90;;;;;;4123253;28;20490;-63
2022/11/09 05:38:03;;;;;;;3.65;1.20;;;14.40;99.90;;;;;;4125070;28;20049;-62
2022/11/09 05:40:06;;;;;;;3.90;1.33;;;14.40;99.90;;;;;;4124967;28;20031;-64
2022/11/09 05:42:09;;;;;;;4.22;1.17;;;14.40;99.90;;;;;;4128848;28;20026;-62
2022/11/09 05:44:09;;;;;;;5.63;1.75;;;14.40;99.90;;;;;;4127924;28;20030;-62
2022/11/09 05:46:11;;;;;;;4.05;1.20;;;14.30;99.90;;;;;;4126929;28;20041;-62
2022/11/09 05:48:15;;;;;;;2.47;1.08;;;14.40;99.90;;;;;;4124749;28;20038;-62
2022/11/09 05:50:15;;;;;;;5.20;1.52;;;14.40;99.90;;;;;;4128399;28;20022;-62
2022/11/09 05:52:16;;;;;;;2.33;1.20;;;14.40;99.90;;;;;;4128194;28;20027;-61
2022/11/09 05:54:17;;;;;;;5.05;1.60;;;14.40;99.90;;;;;;4126993;28;20038;-62
2022/11/09 05:56:17;;;;;;;4.03;1.23;;;14.40;99.90;;;;;;4129384;28;20042;-62
2022/11/09 05:58:18;;;;;;;4.40;1.35;;;14.40;99.90;;;;;;4129621;28;20026;-62
2022/11/09 06:00:19;;;;;;;4.70;1.42;;;14.40;99.90;;;;;;4126796;28;20129;-62
2022/11/09 06:02:20;;;;;;;3.90;1.20;;;14.40;99.90;;;;;;4124033;28;20051;-64
2022/11/09 06:04:20;;;;;;;5.80;1.30;;;14.40;99.90;;;;;;4139020;28;20057;-63
2022/11/09 06:06:21;;;;;;;7.38;1.48;;;14.40;99.90;;;;;;4125632;28;20039;-62
2022/11/09 06:08:22;;;;;;;5.85;1.30;;;14.40;99.90;;;;;;4125582;28;20030;-63
2022/11/09 06:10:22;;;;;;;6.68;1.58;;;14.40;99.90;;;;;;4125877;28;20076;-62
2022/11/09 06:12:23;;;;;;;6.60;1.50;;;14.40;99.90;;;;;;4129314;28;20057;-62
2022/11/09 06:14:23;;;;;;;4.18;1.23;;;14.40;99.90;;;;;;4142747;28;20037;-62
2022/11/09 06:16:24;;;;;;;3.60;1.40;;;14.40;99.90;;;;;;4125094;28;20042;-61
2022/11/09 06:18:28;;;;;;;5.18;1.40;;;14.40;99.90;;;;;;4128089;28;20394;-62
2022/11/09 06:20:29;;;;;;;5.70;1.50;;;14.40;99.90;;;;;;4125313;28;20101;-62
2022/11/09 06:22:29;;;;;;;5.53;1.40;;;14.40;99.90;;;;;;4122665;28;20037;-62
2022/11/09 06:24:30;;;;;;;6.15;1.60;;;14.40;99.90;;;;;;4118920;28;20038;-62
2022/11/09 06:26:31;;;;;;;4.30;1.40;;;14.40;99.90;;;;;;4123532;28;20042;-62
2022/11/09 06:28:31;;;;;;;4.03;1.52;;;14.30;99.90;;;;;;4126137;28;20551;-62
2022/11/09 06:30:32;;;;;;;4.28;1.67;;;14.30;99.90;;;;;;4125005;28;20389;-66
2022/11/09 06:32:33;;;;;;;4.55;1.67;;;14.30;99.90;;;;;;4124571;28;20489;-65
2022/11/09 06:34:33;;;;;;;4.05;1.40;;;14.30;99.90;;;;;;4125520;28;20105;-65
2022/11/09 06:36:34;;;;;;;2.80;1.40;;;14.30;99.90;;;;;;4126890;28;20034;-65
2022/11/09 06:38:34;;;;;;;3.95;0.95;;;14.30;99.90;;;;;;4128313;28;20044;-65
2022/11/09 06:40:35;;;;;;;6.25;1.52;;;14.20;99.90;;;;;;4125949;28;20030;-65
2022/11/09 06:42:36;;;;;;;8.52;1.80;;;14.30;99.90;;;;;;4126962;28;20045;-65
2022/11/09 06:44:37;;;;;;;6.50;1.60;;;14.20;99.90;;;;;;4125403;28;20038;-65
2022/11/09 06:46:37;;;;;;;4.07;1.55;;;14.20;99.90;;;;;;4126456;28;20042;-64
2022/11/09 06:48:38;;;;;;;5.47;1.50;;;14.20;99.90;;;;;;4126059;28;20126;-63
2022/11/09 06:50:39;;;;;;;6.00;1.70;;;14.20;99.90;;;;;;4122152;28;20046;-66
2022/11/09 06:52:39;;;;;;;3.85;1.20;;;14.20;99.90;;;;;;4119238;28;20030;-63
2022/11/09 06:54:41;;;;;;;6.93;1.90;;;14.10;99.90;;;;;;4123122;28;20037;-65
2022/11/09 06:56:41;;;;;;;6.18;1.23;;;14.10;99.90;;;;;;4122595;28;20039;-65
2022/11/09 06:58:42;;;;;;;5.65;1.58;;;14.20;99.90;;;;;;4120745;28;20121;-65
2022/11/09 07:00:44;;;;;;;9.63;1.70;;;14.20;99.90;;;;;;4124296;28;20137;-65
2022/11/09 07:02:44;;;;;;;4.10;1.60;;;14.10;99.90;;;;;;4122989;28;20438;-65
2022/11/09 07:04:45;;;;;;;2.85;1.42;;;14.10;99.90;;;;;;4127405;28;20118;-65
2022/11/09 07:06:45;;;;;;;7.45;1.75;;;14.10;99.90;;;;;;4125900;28;20034;-65
2022/11/09 07:08:46;;;;;;;3.90;1.33;;;14.10;99.90;;;;;;4128079;28;20030;-65
2022/11/09 07:10:47;;;;;;;5.55;1.38;;;14.00;99.90;;;;;;4123746;28;20042;-65
2022/11/09 07:12:47;;;;;;;4.00;1.40;;;14.00;99.90;;;;;;4125201;28;20496;-65
2022/11/09 07:14:48;;;;;;;6.28;1.70;;;14.00;99.90;;;;;;4127097;28;20034;-65
2022/11/09 07:16:49;;;;;;;4.32;1.40;;;14.00;99.90;;;;;;4123827;28;20058;-65
2022/11/09 07:18:49;;;;;;;4.53;1.38;;;14.00;99.90;;;;;;4123979;28;20042;-65
2022/11/09 07:20:50;;;;;;;6.53;1.70;;;13.90;99.90;;;;;;4119986;28;20081;-65
2022/11/09 07:22:51;;;;;;;4.40;1.58;;;14.00;99.90;;;;;;4142748;28;20030;-65
2022/11/09 07:24:51;;;;;;;4.28;1.50;;;13.90;99.90;;;;;;4124542;28;20022;-66
2022/11/09 07:26:52;;;;;;;7.07;2.30;;;14.00;99.90;;;;;;4122891;28;22721;-66
2022/11/09 07:28:53;;;;;;;7.72;1.85;;;13.90;99.90;;;;;;4122012;28;20039;-65
2022/11/09 07:30:53;;;;;;;9.75;2.45;;;13.90;99.90;;;;;;4121011;28;20031;-65
2022/11/09 07:32:54;;;;;;;5.57;1.60;;;14.00;99.90;;;;;;4122457;28;20070;-65
2022/11/09 07:34:54;;;;;;;4.47;1.48;;;13.90;99.90;;;;;;4124040;28;20085;-65
2022/11/09 07:36:55;;;;;;;5.35;2.00;;;13.90;99.90;;;;;;4122698;28;20446;-65
2022/11/09 07:38:56;;;;;;;4.80;1.67;;;13.90;99.90;;;;;;4123504;28;20029;-65
2022/11/09 07:41:01;;;;;;;3.35;1.63;;;13.90;99.90;;;;;;4122171;28;20070;-65
2022/11/09 07:43:04;;;;;;;4.32;1.50;;;13.90;99.90;;;;;;4125630;28;20035;-65
2022/11/09 07:45:05;;;;;;;5.40;1.77;;;13.90;99.90;;;;;;4120341;28;20038;-65
2022/11/09 07:47:06;;;;;;;5.25;1.73;;;13.90;99.90;;;;;;4120545;28;20038;-65
2022/11/09 07:49:06;;;;;;;8.52;1.88;;;14.00;99.90;;;;;;4125320;28;20401;-66
2022/11/09 07:51:07;;;;;;;5.30;1.40;;;14.10;99.90;;;;;;4122277;28;20081;-65
2022/11/09 07:53:11;;;;;;;4.15;1.35;;;14.20;99.90;;;;;;4126093;28;20074;-65
2022/11/09 07:55:12;;;;;;;5.65;1.30;;;14.30;99.90;;;;;;4123878;28;20027;-66
2022/11/09 07:57:12;;;;;;;3.30;1.50;;;14.40;99.90;;;;;;4117407;28;20201;-65
2022/11/09 07:59:13;;;;;;;7.07;1.40;;;14.60;99.90;;;;;;4125847;28;20092;-65
2022/11/09 08:01:13;;;;;;;4.60;1.30;;;14.70;99.90;;;;;;4119429;28;20077;-65
2022/11/09 08:03:14;;;;;;;7.35;1.58;;;14.80;99.90;;;;;;4126480;28;20085;-64
2022/11/09 08:05:15;;;;;;;4.38;1.20;;;14.90;99.90;;;;;;4119021;28;20031;-65
2022/11/09 08:07:15;;;;;;;3.30;1.10;;;15.00;99.90;;;;;;4124257;28;20517;-65
2022/11/09 08:09:16;;;;;;;7.25;1.40;;;15.00;99.90;;;;;;4120659;28;20034;-65
2022/11/09 08:11:17;;;;;;;6.78;1.48;;;15.10;99.90;;;;;;4122640;28;20064;-66
2022/11/09 08:13:18;;;;;;;5.03;1.40;;;15.10;99.90;;;;;;4120811;28;20445;-66
2022/11/09 08:15:19;;;;;;;4.00;1.25;;;15.20;99.90;;;;;;4139180;28;20034;-65
2022/11/09 08:17:20;;;;;;;5.65;1.42;;;15.30;99.90;;;;;;4124955;28;20486;-65
2022/11/09 08:19:20;;;;;;;3.13;1.35;;;15.30;99.90;;;;;;4124014;28;20022;-65
2022/11/09 08:21:21;;;;;;;3.63;1.50;;;15.40;99.90;;;;;;4121064;28;20097;-65
2022/11/09 08:23:22;;;;;;;2.38;1.40;;;15.40;99.90;;;;;;4123201;28;20125;-66
2022/11/09 08:25:22;;;;;;;2.63;1.20;;;15.50;99.90;;;;;;4123397;28;20038;-65
2022/11/09 08:27:23;;;;;;;4.07;1.25;;;15.50;99.90;;;;;;4122162;28;20118;-66
2022/11/09 08:29:24;;;;;;;3.30;1.10;;;15.60;99.90;;;;;;4126599;28;20039;-66
2022/11/09 08:31:24;;;;;;;2.17;1.00;;;15.80;99.90;;;;;;4121414;28;20038;-66
2022/11/09 08:33:27;;;;;;;3.67;1.00;;;15.90;99.90;;;;;;4120235;28;20413;-66
2022/11/09 08:35:28;;;;;;;4.03;1.10;;;16.10;99.90;;;;;;4122910;28;20053;-65
2022/11/09 08:37:29;;;;;;;4.55;1.10;;;16.20;99.90;;;;;;4124501;28;20042;-65
2022/11/09 08:39:29;;;;;;;3.67;1.15;;;16.40;99.90;;;;;;4125116;28;20035;-66
2022/11/09 08:41:30;;;;;;;4.20;1.20;;;16.40;99.90;;;;;;4123133;28;20034;-65
2022/11/09 08:43:31;;;;;;;3.80;1.02;;;16.50;99.90;;;;;;4120622;28;20034;-65
2022/11/09 08:45:34;;;;;;;5.15;1.50;;;16.60;99.90;;;;;;4122466;28;20121;-65
2022/11/09 08:47:35;;;;;;;2.75;1.10;;;16.50;99.90;;;;;;4123669;28;20046;-66
2022/11/09 08:49:35;;;;;;;2.53;0.90;;;16.50;99.90;;;;;;4120351;28;20038;-66
2022/11/09 08:51:36;;;;;;;2.30;1.00;;;16.60;99.90;;;;;;4120645;28;20042;-67
2022/11/09 08:53:36;;;;;;;3.08;1.20;;;16.60;99.90;;;;;;4123284;28;20027;-66
2022/11/09 08:55:37;;;;;;;3.33;1.23;;;16.60;99.90;;;;;;4120965;28;20500;-66
2022/11/09 08:57:38;;;;;;;3.28;1.30;;;16.60;99.90;;;;;;4124720;28;20049;-66
2022/11/09 08:59:38;;;;;;;5.32;1.13;;;16.50;99.90;;;;;;4125113;28;20034;-66
2022/11/09 09:01:39;;;;;;;3.67;1.30;;;16.50;99.90;;;;;;4121251;28;20050;-66
2022/11/09 09:03:39;;;;;;;4.25;1.50;;;16.50;99.90;;;;;;4125962;28;20035;-66
2022/11/09 09:05:40;;;;;;;4.18;1.38;;;16.50;99.90;;;;;;4123854;28;20449;-65
2022/11/09 09:07:41;;;;;;;4.18;1.58;;;16.50;99.90;;;;;;4124686;28;20118;-66
2022/11/09 09:09:42;;;;;;;7.63;1.52;;;16.40;99.90;;;;;;4125324;28;20035;-65
2022/11/09 09:11:43;;;;;;;2.25;1.17;;;16.30;99.90;;;;;;4122791;28;20318;-66
2022/11/09 09:13:43;;;;;;;6.00;2.00;;;16.20;99.90;;;;;;4125804;28;20205;-65
2022/11/09 09:15:44;;;;;;;4.35;1.50;;;16.20;99.90;;;;;;4123979;28;20085;-65
2022/11/09 09:17:45;;;;;;;3.78;1.08;;;16.20;99.90;;;;;;4124161;28;20038;-65
2022/11/09 09:19:45;;;;;;;4.22;1.40;;;16.10;99.90;;;;;;4123761;28;20034;-66
2022/11/09 09:21:46;;;;;;;4.20;1.60;;;16.20;99.90;;;;;;4123117;28;21261;-65
2022/11/09 09:23:48;;;;;;;4.78;1.10;;;16.10;99.90;;;;;;4123463;28;20096;-65
2022/11/09 09:25:48;;;;;;;4.90;1.53;;;16.10;99.90;;;;;;4124552;28;20091;-65
2022/11/09 09:27:49;;;;;;;5.25;1.38;;;16.10;99.90;;;;;;4125738;28;20125;-65
2022/11/09 09:29:50;;;;;;;14.35;1.75;;;16.10;99.90;;;;;;4124581;28;20031;-65
2022/11/09 09:31:50;;;;;;;4.15;1.60;;;16.10;99.90;;;;;;4123105;28;20038;-65
2022/11/09 09:33:51;;;;;;;5.00;1.30;;;16.10;99.90;;;;;;4123620;28;20490;-66
2022/11/09 09:35:55;;;;;;;3.25;1.35;;;16.10;99.90;;;;;;4124028;28;20042;-65
2022/11/09 09:37:57;;;;;;;3.08;1.23;;;16.10;99.90;;;;;;4124470;28;20023;-65
2022/11/09 09:39:57;;;;;;;3.00;1.20;;;16.10;99.90;;;;;;4123682;28;20529;-65
2022/11/09 09:42:02;;;;;;;8.13;1.80;;;16.10;99.90;;;;;;4123177;28;20046;-65
2022/11/09 09:44:17;;;;;;;6.15;1.65;;;16.10;99.90;;;;;;4127013;28;20026;-65
2022/11/09 09:46:21;;;;;;;5.20;1.80;;;16.20;99.90;;;;;;4124951;28;20090;-65
2022/11/09 09:48:31;;;;;;;7.47;1.65;;;16.10;99.90;;;;;;4141619;28;20092;-65
2022/11/09 09:50:42;;;;;;;3.25;1.40;;;16.20;99.90;;;;;;4122390;28;20050;-65
2022/11/09 09:53:10;;;;;;;4.60;1.40;;;16.10;99.90;;;;;;4127847;28;20359;-65
2022/11/09 09:55:10;;;;;;;5.13;1.35;;;16.10;99.90;;;;;;4122027;28;20027;-66
2022/11/09 09:57:20;;;;;;;5.82;1.55;;;16.20;99.90;;;;;;4126868;28;20042;-65
2022/11/09 09:59:40;;;;;;;7.40;1.73;;;16.10;99.90;;;;;;4125050;28;20035;-64
2022/11/09 10:01:43;;;;;;;7.07;1.85;;;16.10;99.90;;;;;;4122749;28;20489;-65
2022/11/09 10:03:43;;;;;;;;;;;16.10;99.90;;;;;;4121505;28;20045;-65
2022/11/09 10:06:19;;;;;;;5.32;1.40;;;16.10;99.90;;;;;;4127407;28;20353;-65
2022/11/09 10:08:41;;;;;;;4.75;1.30;;;16.20;99.90;;;;;;4125374;28;20445;-65
2022/11/09 10:11:12;;;;;;;8.18;2.22;;;16.20;99.90;;;;;;4125553;28;20022;-65
2022/11/09 10:13:44;;;;;;;3.38;1.10;;;16.20;99.90;;;;;;4104398;28;20045;-65
2022/11/09 10:15:54;;;;;;;7.78;1.90;;;16.20;99.90;;;;;;4121863;28;20089;-65
2022/11/09 10:18:03;;;;;;;6.15;1.77;;;16.30;99.90;;;;;;4124849;28;20034;-66
2022/11/09 10:20:31;;;;;;;4.30;1.48;;;16.20;99.90;;;;;;4123122;28;20695;-65
2022/11/09 10:22:38;;;;;;;4.82;1.42;;;16.20;99.90;;;;;;4124010;28;20030;-65
2022/11/09 10:24:56;;;;;;;7.28;1.80;;;16.20;99.90;;;;;;4123753;28;20398;-65
2022/11/09 10:26:59;;;;;;;3.63;1.50;;;16.30;99.90;;;;;;4120130;28;20105;-65
2022/11/09 10:29:06;;;;;;;6.55;1.67;;;16.30;99.90;;;;;;4126296;28;20092;-65
2022/11/09 10:31:17;;;;;;;4.60;1.33;;;16.40;99.90;;;;;;4122592;28;20031;-66
2022/11/09 10:33:20;;;;;;;5.40;1.38;;;16.30;99.90;;;;;;4123662;28;20031;-65
2022/11/09 10:35:29;;;;;;;5.72;1.70;;;16.30;99.90;;;;;;4124854;28;20421;-65
2022/11/09 10:37:41;;;;;;;5.05;1.83;;;16.40;99.90;;;;;;4118583;28;20518;-65